sensor_id;sensor_type;location;lat;lon;timestamp;P1;durP1;ratioP1;P2;durP2;ratioP2
16693;SDS011;39538;52.196;9.892;2022-10-01T00:02:00;41.40;;;39.90;;
16693;SDS011;39538;52.196;9.892;2022-10-01T00:04:27;41.07;;;39.97;;
16693;SDS011;39538;52.196;9.892;2022-10-01T00:06:54;38.97;;;37.97;;
16693;SDS011;39538;52.196;9.892;2022-10-01T00:09:23;42.47;;;41.07;;
16693;SDS011;39538;52.196;9.892;2022-10-01T00:11:50;42.20;;;40.90;;
16693;SDS011;39538;52.196;9.892;2022-10-01T00:14:19;49.40;;;47.87;;
16693;SDS011;39538;52.196;9.892;2022-10-01T00:16:45;35.17;;;34.20;;
16693;SDS011;39538;52.196;9.892;2022-10-01T00:19:12;40.53;;;38.60;;
16693;SDS011;39538;52.196;9.892;2022-10-01T00:21:40;40.57;;;39.47;;
16693;SDS011;39538;52.196;9.892;2022-10-01T00:24:09;42.53;;;41.33;;
16693;SDS011;39538;52.196;9.892;2022-10-01T00:26:37;42.33;;;41.03;;
16693;SDS011;39538;52.196;9.892;2022-10-01T00:29:04;43.03;;;41.43;;
16693;SDS011;39538;52.196;9.892;2022-10-01T00:31:34;45.97;;;44.70;;
16693;SDS011;39538;52.196;9.892;2022-10-01T00:34:00;46.37;;;45.00;;
16693;SDS011;39538;52.196;9.892;2022-10-01T00:36:28;51.13;;;49.70;;
16693;SDS011;39538;52.196;9.892;2022-10-01T00:38:56;47.47;;;46.27;;
16693;SDS011;39538;52.196;9.892;2022-10-01T00:41:24;51.00;;;49.67;;
16693;SDS011;39538;52.196;9.892;2022-10-01T00:43:54;48.30;;;47.00;;
16693;SDS011;39538;52.196;9.892;2022-10-01T00:46:23;47.10;;;45.80;;
16693;SDS011;39538;52.196;9.892;2022-10-01T00:48:56;49.43;;;47.83;;
16693;SDS011;39538;52.196;9.892;2022-10-01T00:51:27;47.63;;;46.13;;
16693;SDS011;39538;52.196;9.892;2022-10-01T00:53:59;41.00;;;39.80;;
16693;SDS011;39538;52.196;9.892;2022-10-01T00:56:31;47.33;;;46.00;;
16693;SDS011;39538;52.196;9.892;2022-10-01T00:58:58;45.87;;;44.57;;
16693;SDS011;39538;52.196;9.892;2022-10-01T01:01:25;44.80;;;43.40;;
16693;SDS011;39538;52.196;9.892;2022-10-01T01:03:51;45.47;;;44.23;;
16693;SDS011;39538;52.196;9.892;2022-10-01T01:06:19;45.10;;;43.70;;
16693;SDS011;39538;52.196;9.892;2022-10-01T01:08:46;45.40;;;44.10;;
16693;SDS011;39538;52.196;9.892;2022-10-01T01:11:21;50.30;;;49.00;;
16693;SDS011;39538;52.196;9.892;2022-10-01T01:13:55;38.77;;;37.57;;
16693;SDS011;39538;52.196;9.892;2022-10-01T01:16:27;46.47;;;45.27;;
16693;SDS011;39538;52.196;9.892;2022-10-01T01:18:59;47.30;;;46.10;;
16693;SDS011;39538;52.196;9.892;2022-10-01T01:21:31;44.57;;;43.37;;
16693;SDS011;39538;52.196;9.892;2022-10-01T01:24:03;48.00;;;46.43;;
16693;SDS011;39538;52.196;9.892;2022-10-01T01:26:56;41.03;;;39.87;;
16693;SDS011;39538;52.196;9.892;2022-10-01T01:29:42;41.97;;;40.13;;
16693;SDS011;39538;52.196;9.892;2022-10-01T01:32:16;41.97;;;40.70;;
16693;SDS011;39538;52.196;9.892;2022-10-01T01:34:48;45.17;;;44.07;;
16693;SDS011;39538;52.196;9.892;2022-10-01T01:37:17;46.07;;;44.77;;
16693;SDS011;39538;52.196;9.892;2022-10-01T01:39:49;50.93;;;49.10;;
16693;SDS011;39538;52.196;9.892;2022-10-01T01:42:22;41.10;;;40.00;;
16693;SDS011;39538;52.196;9.892;2022-10-01T01:44:53;45.07;;;43.63;;
16693;SDS011;39538;52.196;9.892;2022-10-01T01:47:24;45.53;;;44.33;;
16693;SDS011;39538;52.196;9.892;2022-10-01T01:49:54;48.97;;;47.23;;
16693;SDS011;39538;52.196;9.892;2022-10-01T01:52:21;42.10;;;41.07;;
16693;SDS011;39538;52.196;9.892;2022-10-01T01:54:48;47.20;;;45.97;;
16693;SDS011;39538;52.196;9.892;2022-10-01T01:57:16;51.57;;;49.97;;
16693;SDS011;39538;52.196;9.892;2022-10-01T01:59:44;49.23;;;47.77;;
16693;SDS011;39538;52.196;9.892;2022-10-01T02:02:12;50.10;;;48.67;;
16693;SDS011;39538;52.196;9.892;2022-10-01T02:04:42;47.07;;;45.77;;
16693;SDS011;39538;52.196;9.892;2022-10-01T02:07:14;51.07;;;49.47;;
16693;SDS011;39538;52.196;9.892;2022-10-01T02:09:53;46.60;;;44.73;;
16693;SDS011;39538;52.196;9.892;2022-10-01T02:12:32;48.60;;;47.33;;
16693;SDS011;39538;52.196;9.892;2022-10-01T02:15:08;47.07;;;45.80;;
16693;SDS011;39538;52.196;9.892;2022-10-01T02:17:47;48.00;;;46.70;;
16693;SDS011;39538;52.196;9.892;2022-10-01T02:20:19;49.87;;;48.47;;
16693;SDS011;39538;52.196;9.892;2022-10-01T02:22:54;44.73;;;42.93;;
16693;SDS011;39538;52.196;9.892;2022-10-01T02:25:25;52.83;;;51.17;;
16693;SDS011;39538;52.196;9.892;2022-10-01T02:27:55;55.03;;;53.23;;
16693;SDS011;39538;52.196;9.892;2022-10-01T02:30:26;52.43;;;50.93;;
16693;SDS011;39538;52.196;9.892;2022-10-01T02:32:55;48.10;;;46.83;;
16693;SDS011;39538;52.196;9.892;2022-10-01T02:35:25;52.17;;;50.67;;
16693;SDS011;39538;52.196;9.892;2022-10-01T02:37:53;47.73;;;46.53;;
16693;SDS011;39538;52.196;9.892;2022-10-01T02:40:23;50.97;;;49.37;;
16693;SDS011;39538;52.196;9.892;2022-10-01T02:42:53;52.87;;;51.53;;
16693;SDS011;39538;52.196;9.892;2022-10-01T02:45:23;47.77;;;46.37;;
16693;SDS011;39538;52.196;9.892;2022-10-01T02:47:52;46.00;;;44.80;;
16693;SDS011;39538;52.196;9.892;2022-10-01T02:50:23;51.57;;;50.17;;
16693;SDS011;39538;52.196;9.892;2022-10-01T02:52:57;48.70;;;47.40;;
16693;SDS011;39538;52.196;9.892;2022-10-01T02:55:28;49.37;;;48.03;;
16693;SDS011;39538;52.196;9.892;2022-10-01T02:57:58;49.67;;;48.17;;
16693;SDS011;39538;52.196;9.892;2022-10-01T03:00:24;50.53;;;48.43;;
16693;SDS011;39538;52.196;9.892;2022-10-01T03:02:52;44.93;;;43.77;;
16693;SDS011;39538;52.196;9.892;2022-10-01T03:05:20;46.83;;;45.53;;
16693;SDS011;39538;52.196;9.892;2022-10-01T03:07:48;51.43;;;49.63;;
16693;SDS011;39538;52.196;9.892;2022-10-01T03:10:15;49.67;;;48.17;;
16693;SDS011;39538;52.196;9.892;2022-10-01T03:12:42;46.77;;;45.50;;
16693;SDS011;39538;52.196;9.892;2022-10-01T03:15:10;45.30;;;44.10;;
16693;SDS011;39538;52.196;9.892;2022-10-01T03:17:37;47.13;;;45.73;;
16693;SDS011;39538;52.196;9.892;2022-10-01T03:20:06;44.47;;;43.10;;
16693;SDS011;39538;52.196;9.892;2022-10-01T03:22:35;45.10;;;43.90;;
16693;SDS011;39538;52.196;9.892;2022-10-01T03:25:01;41.27;;;39.97;;
16693;SDS011;39538;52.196;9.892;2022-10-01T03:27:28;50.77;;;49.23;;
16693;SDS011;39538;52.196;9.892;2022-10-01T03:29:55;46.40;;;44.63;;
16693;SDS011;39538;52.196;9.892;2022-10-01T03:32:22;51.87;;;50.23;;
16693;SDS011;39538;52.196;9.892;2022-10-01T03:34:48;51.23;;;49.37;;
16693;SDS011;39538;52.196;9.892;2022-10-01T03:37:16;45.03;;;43.80;;
16693;SDS011;39538;52.196;9.892;2022-10-01T03:39:43;45.30;;;43.60;;
16693;SDS011;39538;52.196;9.892;2022-10-01T03:42:09;45.27;;;44.07;;
16693;SDS011;39538;52.196;9.892;2022-10-01T03:44:36;41.47;;;40.37;;
16693;SDS011;39538;52.196;9.892;2022-10-01T03:47:02;50.20;;;48.80;;
16693;SDS011;39538;52.196;9.892;2022-10-01T03:49:29;48.83;;;47.53;;
16693;SDS011;39538;52.196;9.892;2022-10-01T03:51:55;48.90;;;47.63;;
16693;SDS011;39538;52.196;9.892;2022-10-01T03:54:23;43.37;;;42.07;;
16693;SDS011;39538;52.196;9.892;2022-10-01T03:56:50;46.83;;;45.37;;
16693;SDS011;39538;52.196;9.892;2022-10-01T03:59:16;39.97;;;38.87;;
16693;SDS011;39538;52.196;9.892;2022-10-01T04:01:43;52.43;;;50.67;;
16693;SDS011;39538;52.196;9.892;2022-10-01T04:04:10;46.37;;;44.97;;
16693;SDS011;39538;52.196;9.892;2022-10-01T04:06:36;50.50;;;48.90;;
16693;SDS011;39538;52.196;9.892;2022-10-01T04:09:03;47.87;;;46.33;;
16693;SDS011;39538;52.196;9.892;2022-10-01T04:11:31;46.30;;;44.57;;
16693;SDS011;39538;52.196;9.892;2022-10-01T04:13:58;46.60;;;45.40;;
16693;SDS011;39538;52.196;9.892;2022-10-01T04:16:24;47.53;;;46.30;;
16693;SDS011;39538;52.196;9.892;2022-10-01T04:18:51;46.73;;;45.23;;
16693;SDS011;39538;52.196;9.892;2022-10-01T04:21:18;45.13;;;43.80;;
16693;SDS011;39538;52.196;9.892;2022-10-01T04:23:44;49.93;;;48.10;;
16693;SDS011;39538;52.196;9.892;2022-10-01T04:26:11;37.60;;;36.60;;
16693;SDS011;39538;52.196;9.892;2022-10-01T04:28:39;39.97;;;38.63;;
16693;SDS011;39538;52.196;9.892;2022-10-01T04:31:05;45.67;;;44.43;;
16693;SDS011;39538;52.196;9.892;2022-10-01T04:33:51;50.60;;;49.20;;
16693;SDS011;39538;52.196;9.892;2022-10-01T04:36:18;48.07;;;46.07;;
16693;SDS011;39538;52.196;9.892;2022-10-01T04:38:45;46.60;;;45.37;;
16693;SDS011;39538;52.196;9.892;2022-10-01T04:41:12;50.60;;;49.33;;
16693;SDS011;39538;52.196;9.892;2022-10-01T04:43:40;57.17;;;55.63;;
16693;SDS011;39538;52.196;9.892;2022-10-01T04:46:06;80.80;;;78.13;;
16693;SDS011;39538;52.196;9.892;2022-10-01T04:48:33;85.57;;;82.83;;
16693;SDS011;39538;52.196;9.892;2022-10-01T04:50:59;84.97;;;82.17;;
16693;SDS011;39538;52.196;9.892;2022-10-01T04:53:26;75.53;;;73.13;;
16693;SDS011;39538;52.196;9.892;2022-10-01T04:55:52;67.53;;;65.63;;
16693;SDS011;39538;52.196;9.892;2022-10-01T04:58:19;81.27;;;78.33;;
16693;SDS011;39538;52.196;9.892;2022-10-01T05:00:47;61.07;;;59.43;;
16693;SDS011;39538;52.196;9.892;2022-10-01T05:03:14;84.10;;;81.13;;
16693;SDS011;39538;52.196;9.892;2022-10-01T05:05:40;87.27;;;84.60;;
16693;SDS011;39538;52.196;9.892;2022-10-01T05:08:07;88.73;;;85.90;;
16693;SDS011;39538;52.196;9.892;2022-10-01T05:10:34;91.27;;;88.57;;
16693;SDS011;39538;52.196;9.892;2022-10-01T05:13:00;85.37;;;82.30;;
16693;SDS011;39538;52.196;9.892;2022-10-01T05:15:27;71.53;;;69.20;;
16693;SDS011;39538;52.196;9.892;2022-10-01T05:17:55;74.83;;;72.70;;
16693;SDS011;39538;52.196;9.892;2022-10-01T05:20:23;68.33;;;66.30;;
16693;SDS011;39538;52.196;9.892;2022-10-01T05:22:51;61.57;;;59.50;;
16693;SDS011;39538;52.196;9.892;2022-10-01T05:25:18;62.53;;;60.53;;
16693;SDS011;39538;52.196;9.892;2022-10-01T05:27:45;82.50;;;79.87;;
16693;SDS011;39538;52.196;9.892;2022-10-01T05:30:12;54.03;;;52.53;;
16693;SDS011;39538;52.196;9.892;2022-10-01T05:32:52;53.03;;;51.53;;
16693;SDS011;39538;52.196;9.892;2022-10-01T05:35:21;57.67;;;56.17;;
16693;SDS011;39538;52.196;9.892;2022-10-01T05:37:51;61.90;;;59.73;;
16693;SDS011;39538;52.196;9.892;2022-10-01T05:40:18;63.20;;;61.43;;
16693;SDS011;39538;52.196;9.892;2022-10-01T05:42:44;82.97;;;80.07;;
16693;SDS011;39538;52.196;9.892;2022-10-01T05:45:11;79.63;;;77.10;;
16693;SDS011;39538;52.196;9.892;2022-10-01T05:47:38;86.17;;;83.27;;
16693;SDS011;39538;52.196;9.892;2022-10-01T05:50:08;97.83;;;94.53;;
16693;SDS011;39538;52.196;9.892;2022-10-01T05:52:36;92.03;;;89.03;;
16693;SDS011;39538;52.196;9.892;2022-10-01T05:55:05;100.83;;;97.27;;
16693;SDS011;39538;52.196;9.892;2022-10-01T05:57:32;97.40;;;94.07;;
16693;SDS011;39538;52.196;9.892;2022-10-01T05:59:58;103.20;;;99.47;;
16693;SDS011;39538;52.196;9.892;2022-10-01T06:02:25;101.37;;;97.77;;
16693;SDS011;39538;52.196;9.892;2022-10-01T06:04:51;99.70;;;96.07;;
16693;SDS011;39538;52.196;9.892;2022-10-01T06:07:18;114.20;;;109.63;;
16693;SDS011;39538;52.196;9.892;2022-10-01T06:09:45;101.17;;;97.57;;
16693;SDS011;39538;52.196;9.892;2022-10-01T06:12:12;107.27;;;102.90;;
16693;SDS011;39538;52.196;9.892;2022-10-01T06:14:39;110.87;;;106.70;;
16693;SDS011;39538;52.196;9.892;2022-10-01T06:17:06;99.00;;;95.30;;
16693;SDS011;39538;52.196;9.892;2022-10-01T06:19:33;106.73;;;102.93;;
16693;SDS011;39538;52.196;9.892;2022-10-01T06:21:59;101.87;;;97.87;;
16693;SDS011;39538;52.196;9.892;2022-10-01T06:24:26;93.30;;;89.77;;
16693;SDS011;39538;52.196;9.892;2022-10-01T06:26:53;103.67;;;99.80;;
16693;SDS011;39538;52.196;9.892;2022-10-01T06:29:20;111.33;;;106.93;;
16693;SDS011;39538;52.196;9.892;2022-10-01T06:31:47;111.53;;;107.30;;
16693;SDS011;39538;52.196;9.892;2022-10-01T06:34:13;108.07;;;104.10;;
16693;SDS011;39538;52.196;9.892;2022-10-01T06:36:40;109.93;;;105.80;;
16693;SDS011;39538;52.196;9.892;2022-10-01T06:39:06;112.00;;;107.53;;
16693;SDS011;39538;52.196;9.892;2022-10-01T06:41:33;122.10;;;117.23;;
16693;SDS011;39538;52.196;9.892;2022-10-01T06:44:01;133.90;;;128.60;;
16693;SDS011;39538;52.196;9.892;2022-10-01T06:46:27;123.47;;;118.47;;
16693;SDS011;39538;52.196;9.892;2022-10-01T06:48:54;114.53;;;110.27;;
16693;SDS011;39538;52.196;9.892;2022-10-01T06:51:20;115.20;;;110.47;;
16693;SDS011;39538;52.196;9.892;2022-10-01T06:54:07;131.93;;;126.27;;
16693;SDS011;39538;52.196;9.892;2022-10-01T06:56:33;118.30;;;113.80;;
16693;SDS011;39538;52.196;9.892;2022-10-01T06:59:01;133.60;;;127.90;;
16693;SDS011;39538;52.196;9.892;2022-10-01T07:01:28;129.70;;;124.20;;
16693;SDS011;39538;52.196;9.892;2022-10-01T07:03:56;132.77;;;127.43;;
16693;SDS011;39538;52.196;9.892;2022-10-01T07:06:23;117.87;;;113.20;;
16693;SDS011;39538;52.196;9.892;2022-10-01T07:08:50;123.67;;;118.27;;
16693;SDS011;39538;52.196;9.892;2022-10-01T07:11:17;131.20;;;126.17;;
16693;SDS011;39538;52.196;9.892;2022-10-01T07:13:43;126.43;;;121.33;;
16693;SDS011;39538;52.196;9.892;2022-10-01T07:16:11;117.87;;;113.40;;
16693;SDS011;39538;52.196;9.892;2022-10-01T07:18:38;114.13;;;110.07;;
16693;SDS011;39538;52.196;9.892;2022-10-01T07:21:04;116.00;;;111.67;;
16693;SDS011;39538;52.196;9.892;2022-10-01T07:23:31;118.77;;;114.27;;
16693;SDS011;39538;52.196;9.892;2022-10-01T07:25:57;112.37;;;108.37;;
16693;SDS011;39538;52.196;9.892;2022-10-01T07:28:24;114.40;;;110.40;;
16693;SDS011;39538;52.196;9.892;2022-10-01T07:30:58;117.23;;;112.83;;
16693;SDS011;39538;52.196;9.892;2022-10-01T07:33:27;129.27;;;124.37;;
16693;SDS011;39538;52.196;9.892;2022-10-01T07:35:54;114.67;;;110.37;;
16693;SDS011;39538;52.196;9.892;2022-10-01T07:38:21;128.00;;;123.00;;
16693;SDS011;39538;52.196;9.892;2022-10-01T07:40:51;124.47;;;119.63;;
16693;SDS011;39538;52.196;9.892;2022-10-01T07:43:18;133.03;;;127.83;;
16693;SDS011;39538;52.196;9.892;2022-10-01T07:45:45;137.40;;;131.77;;
16693;SDS011;39538;52.196;9.892;2022-10-01T07:48:13;137.77;;;132.40;;
16693;SDS011;39538;52.196;9.892;2022-10-01T07:50:42;131.67;;;126.60;;
16693;SDS011;39538;52.196;9.892;2022-10-01T07:53:10;137.00;;;131.43;;
16693;SDS011;39538;52.196;9.892;2022-10-01T07:55:37;146.73;;;140.50;;
16693;SDS011;39538;52.196;9.892;2022-10-01T07:58:03;148.43;;;142.27;;
16693;SDS011;39538;52.196;9.892;2022-10-01T08:00:31;142.30;;;136.60;;
16693;SDS011;39538;52.196;9.892;2022-10-01T08:02:58;148.67;;;142.67;;
16693;SDS011;39538;52.196;9.892;2022-10-01T08:05:26;141.40;;;135.70;;
16693;SDS011;39538;52.196;9.892;2022-10-01T08:07:58;150.53;;;144.33;;
16693;SDS011;39538;52.196;9.892;2022-10-01T08:10:26;152.57;;;146.23;;
16693;SDS011;39538;52.196;9.892;2022-10-01T08:12:57;171.73;;;164.53;;
16693;SDS011;39538;52.196;9.892;2022-10-01T08:15:24;147.13;;;141.33;;
16693;SDS011;39538;52.196;9.892;2022-10-01T08:17:50;157.17;;;150.80;;
16693;SDS011;39538;52.196;9.892;2022-10-01T08:20:17;164.63;;;157.90;;
16693;SDS011;39538;52.196;9.892;2022-10-01T08:22:45;136.47;;;131.13;;
16693;SDS011;39538;52.196;9.892;2022-10-01T08:25:13;147.50;;;141.67;;
16693;SDS011;39538;52.196;9.892;2022-10-01T08:27:40;138.47;;;133.00;;
16693;SDS011;39538;52.196;9.892;2022-10-01T08:30:07;149.77;;;143.80;;
16693;SDS011;39538;52.196;9.892;2022-10-01T08:32:34;129.27;;;123.83;;
16693;SDS011;39538;52.196;9.892;2022-10-01T08:35:00;112.57;;;108.47;;
16693;SDS011;39538;52.196;9.892;2022-10-01T08:37:28;128.53;;;123.67;;
16693;SDS011;39538;52.196;9.892;2022-10-01T08:39:54;121.60;;;117.10;;
16693;SDS011;39538;52.196;9.892;2022-10-01T08:42:28;115.93;;;111.73;;
16693;SDS011;39538;52.196;9.892;2022-10-01T08:45:05;113.47;;;109.37;;
16693;SDS011;39538;52.196;9.892;2022-10-01T08:47:39;114.60;;;110.67;;
16693;SDS011;39538;52.196;9.892;2022-10-01T08:50:11;106.30;;;102.50;;
16693;SDS011;39538;52.196;9.892;2022-10-01T08:52:57;101.23;;;97.83;;
16693;SDS011;39538;52.196;9.892;2022-10-01T08:55:26;91.10;;;88.47;;
16693;SDS011;39538;52.196;9.892;2022-10-01T08:58:02;98.57;;;95.20;;
16693;SDS011;39538;52.196;9.892;2022-10-01T09:00:31;99.30;;;96.10;;
16693;SDS011;39538;52.196;9.892;2022-10-01T09:03:03;100.77;;;97.63;;
16693;SDS011;39538;52.196;9.892;2022-10-01T09:05:33;107.37;;;103.87;;
16693;SDS011;39538;52.196;9.892;2022-10-01T09:08:08;97.10;;;94.07;;
16693;SDS011;39538;52.196;9.892;2022-10-01T09:10:45;114.17;;;110.37;;
16693;SDS011;39538;52.196;9.892;2022-10-01T09:13:26;98.93;;;95.43;;
16693;SDS011;39538;52.196;9.892;2022-10-01T09:16:05;101.03;;;97.80;;
16693;SDS011;39538;52.196;9.892;2022-10-01T09:18:43;112.30;;;108.53;;
16693;SDS011;39538;52.196;9.892;2022-10-01T09:21:18;104.17;;;100.80;;
16693;SDS011;39538;52.196;9.892;2022-10-01T09:23:54;115.27;;;111.30;;
16693;SDS011;39538;52.196;9.892;2022-10-01T09:26:29;100.30;;;97.10;;
16693;SDS011;39538;52.196;9.892;2022-10-01T09:28:58;101.07;;;97.87;;
16693;SDS011;39538;52.196;9.892;2022-10-01T09:31:29;111.53;;;107.90;;
16693;SDS011;39538;52.196;9.892;2022-10-01T09:34:02;98.93;;;95.87;;
16693;SDS011;39538;52.196;9.892;2022-10-01T09:36:36;106.90;;;103.03;;
16693;SDS011;39538;52.196;9.892;2022-10-01T09:39:11;100.67;;;97.27;;
16693;SDS011;39538;52.196;9.892;2022-10-01T09:41:43;104.47;;;101.10;;
16693;SDS011;39538;52.196;9.892;2022-10-01T09:44:14;101.27;;;98.00;;
16693;SDS011;39538;52.196;9.892;2022-10-01T09:46:42;105.73;;;102.43;;
16693;SDS011;39538;52.196;9.892;2022-10-01T09:49:12;102.70;;;99.50;;
16693;SDS011;39538;52.196;9.892;2022-10-01T09:51:51;113.97;;;110.00;;
16693;SDS011;39538;52.196;9.892;2022-10-01T09:54:21;117.30;;;113.50;;
16693;SDS011;39538;52.196;9.892;2022-10-01T09:57:00;109.70;;;106.20;;
16693;SDS011;39538;52.196;9.892;2022-10-01T09:59:35;109.60;;;105.97;;
16693;SDS011;39538;52.196;9.892;2022-10-01T10:02:07;106.00;;;102.60;;
16693;SDS011;39538;52.196;9.892;2022-10-01T10:04:41;100.40;;;97.17;;
16693;SDS011;39538;52.196;9.892;2022-10-01T10:07:10;110.27;;;106.60;;
16693;SDS011;39538;52.196;9.892;2022-10-01T10:09:42;106.07;;;102.67;;
16693;SDS011;39538;52.196;9.892;2022-10-01T10:12:17;105.33;;;101.90;;
16693;SDS011;39538;52.196;9.892;2022-10-01T10:14:53;109.00;;;105.37;;
16693;SDS011;39538;52.196;9.892;2022-10-01T10:17:21;109.40;;;105.83;;
16693;SDS011;39538;52.196;9.892;2022-10-01T10:19:49;114.67;;;110.73;;
16693;SDS011;39538;52.196;9.892;2022-10-01T10:22:19;110.40;;;106.70;;
16693;SDS011;39538;52.196;9.892;2022-10-01T10:24:47;109.80;;;106.10;;
16693;SDS011;39538;52.196;9.892;2022-10-01T10:27:21;111.77;;;107.90;;
16693;SDS011;39538;52.196;9.892;2022-10-01T10:30:04;113.43;;;109.43;;
16693;SDS011;39538;52.196;9.892;2022-10-01T10:32:38;124.10;;;119.63;;
16693;SDS011;39538;52.196;9.892;2022-10-01T10:35:07;121.57;;;117.27;;
16693;SDS011;39538;52.196;9.892;2022-10-01T10:37:41;119.43;;;115.23;;
16693;SDS011;39538;52.196;9.892;2022-10-01T10:40:14;122.80;;;118.23;;
16693;SDS011;39538;52.196;9.892;2022-10-01T10:42:45;137.23;;;132.27;;
16693;SDS011;39538;52.196;9.892;2022-10-01T10:45:16;133.90;;;129.17;;
16693;SDS011;39538;52.196;9.892;2022-10-01T10:47:45;143.33;;;138.27;;
16693;SDS011;39538;52.196;9.892;2022-10-01T10:50:20;129.40;;;124.73;;
16693;SDS011;39538;52.196;9.892;2022-10-01T10:52:53;141.00;;;135.70;;
16693;SDS011;39538;52.196;9.892;2022-10-01T10:55:20;142.87;;;137.67;;
16693;SDS011;39538;52.196;9.892;2022-10-01T10:57:49;146.03;;;140.70;;
16693;SDS011;39538;52.196;9.892;2022-10-01T11:00:18;142.33;;;137.17;;
16693;SDS011;39538;52.196;9.892;2022-10-01T11:02:48;107.63;;;103.77;;
16693;SDS011;39538;52.196;9.892;2022-10-01T11:05:19;122.60;;;117.80;;
16693;SDS011;39538;52.196;9.892;2022-10-01T11:07:49;114.00;;;110.43;;
16693;SDS011;39538;52.196;9.892;2022-10-01T11:10:22;143.20;;;137.60;;
16693;SDS011;39538;52.196;9.892;2022-10-01T11:13:01;127.27;;;122.33;;
16693;SDS011;39538;52.196;9.892;2022-10-01T11:15:46;130.63;;;125.10;;
16693;SDS011;39538;52.196;9.892;2022-10-01T11:21:30;106.40;;;103.07;;
16693;SDS011;39538;52.196;9.892;2022-10-01T11:27:18;112.40;;;108.43;;
16693;SDS011;39538;52.196;9.892;2022-10-01T11:29:52;120.77;;;116.50;;
16693;SDS011;39538;52.196;9.892;2022-10-01T11:32:31;129.13;;;124.47;;
16693;SDS011;39538;52.196;9.892;2022-10-01T11:35:09;122.13;;;117.83;;
16693;SDS011;39538;52.196;9.892;2022-10-01T11:38:11;140.03;;;134.87;;
16693;SDS011;39538;52.196;9.892;2022-10-01T11:40:50;116.27;;;112.10;;
16693;SDS011;39538;52.196;9.892;2022-10-01T11:43:22;107.13;;;103.53;;
16693;SDS011;39538;52.196;9.892;2022-10-01T11:45:52;116.10;;;112.20;;
16693;SDS011;39538;52.196;9.892;2022-10-01T11:48:26;117.53;;;113.60;;
16693;SDS011;39538;52.196;9.892;2022-10-01T11:51:01;129.47;;;124.77;;
16693;SDS011;39538;52.196;9.892;2022-10-01T11:53:32;122.90;;;118.57;;
16693;SDS011;39538;52.196;9.892;2022-10-01T11:56:03;115.70;;;111.17;;
16693;SDS011;39538;52.196;9.892;2022-10-01T11:58:55;117.47;;;113.13;;
16693;SDS011;39538;52.196;9.892;2022-10-01T12:01:29;123.43;;;118.90;;
16693;SDS011;39538;52.196;9.892;2022-10-01T12:04:04;129.60;;;124.43;;
16693;SDS011;39538;52.196;9.892;2022-10-01T12:06:39;139.70;;;134.53;;
16693;SDS011;39538;52.196;9.892;2022-10-01T12:09:11;169.77;;;163.33;;
16693;SDS011;39538;52.196;9.892;2022-10-01T12:11:43;150.30;;;144.27;;
16693;SDS011;39538;52.196;9.892;2022-10-01T12:14:18;160.60;;;154.37;;
16693;SDS011;39538;52.196;9.892;2022-10-01T12:16:49;177.53;;;170.70;;
16693;SDS011;39538;52.196;9.892;2022-10-01T12:19:22;176.60;;;169.80;;
16693;SDS011;39538;52.196;9.892;2022-10-01T12:21:52;166.97;;;160.37;;
16693;SDS011;39538;52.196;9.892;2022-10-01T12:24:23;155.50;;;149.33;;
16693;SDS011;39538;52.196;9.892;2022-10-01T12:26:56;131.67;;;126.10;;
16693;SDS011;39538;52.196;9.892;2022-10-01T12:29:32;131.33;;;125.63;;
16693;SDS011;39538;52.196;9.892;2022-10-01T12:32:09;111.37;;;107.23;;
16693;SDS011;39538;52.196;9.892;2022-10-01T12:34:49;111.03;;;106.83;;
16693;SDS011;39538;52.196;9.892;2022-10-01T12:37:31;112.77;;;108.67;;
16693;SDS011;39538;52.196;9.892;2022-10-01T12:40:14;110.03;;;105.90;;
16693;SDS011;39538;52.196;9.892;2022-10-01T12:42:52;111.40;;;107.33;;
16693;SDS011;39538;52.196;9.892;2022-10-01T12:45:29;109.00;;;105.07;;
16693;SDS011;39538;52.196;9.892;2022-10-01T12:48:10;112.73;;;108.67;;
16693;SDS011;39538;52.196;9.892;2022-10-01T12:50:47;123.43;;;118.87;;
16693;SDS011;39538;52.196;9.892;2022-10-01T12:53:23;117.93;;;113.43;;
16693;SDS011;39538;52.196;9.892;2022-10-01T12:55:59;123.87;;;118.83;;
16693;SDS011;39538;52.196;9.892;2022-10-01T13:01:32;116.57;;;112.43;;
16693;SDS011;39538;52.196;9.892;2022-10-01T13:04:16;114.60;;;110.47;;
16693;SDS011;39538;52.196;9.892;2022-10-01T13:07:16;115.90;;;110.73;;
16693;SDS011;39538;52.196;9.892;2022-10-01T13:09:58;115.80;;;111.53;;
16693;SDS011;39538;52.196;9.892;2022-10-01T13:12:40;123.27;;;118.33;;
16693;SDS011;39538;52.196;9.892;2022-10-01T13:15:16;121.87;;;117.03;;
16693;SDS011;39538;52.196;9.892;2022-10-01T13:17:47;119.90;;;115.20;;
16693;SDS011;39538;52.196;9.892;2022-10-01T13:20:21;127.73;;;122.57;;
16693;SDS011;39538;52.196;9.892;2022-10-01T13:22:56;121.27;;;116.70;;
16693;SDS011;39538;52.196;9.892;2022-10-01T13:25:31;156.10;;;149.53;;
16693;SDS011;39538;52.196;9.892;2022-10-01T13:28:08;128.33;;;122.83;;
16693;SDS011;39538;52.196;9.892;2022-10-01T13:30:50;142.07;;;136.27;;
16693;SDS011;39538;52.196;9.892;2022-10-01T13:33:24;124.63;;;119.30;;
16693;SDS011;39538;52.196;9.892;2022-10-01T13:35:53;133.80;;;128.53;;
16693;SDS011;39538;52.196;9.892;2022-10-01T13:38:27;119.43;;;114.70;;
16693;SDS011;39538;52.196;9.892;2022-10-01T13:40:56;136.93;;;130.83;;
16693;SDS011;39538;52.196;9.892;2022-10-01T13:43:25;137.47;;;132.03;;
16693;SDS011;39538;52.196;9.892;2022-10-01T13:45:53;133.50;;;128.00;;
16693;SDS011;39538;52.196;9.892;2022-10-01T13:48:21;128.30;;;122.97;;
16693;SDS011;39538;52.196;9.892;2022-10-01T13:50:53;141.77;;;135.40;;
16693;SDS011;39538;52.196;9.892;2022-10-01T13:53:23;138.87;;;132.73;;
16693;SDS011;39538;52.196;9.892;2022-10-01T13:55:53;134.30;;;128.73;;
16693;SDS011;39538;52.196;9.892;2022-10-01T13:58:22;142.53;;;136.33;;
16693;SDS011;39538;52.196;9.892;2022-10-01T14:00:56;143.23;;;137.37;;
16693;SDS011;39538;52.196;9.892;2022-10-01T14:03:26;135.60;;;129.60;;
16693;SDS011;39538;52.196;9.892;2022-10-01T14:06:04;139.50;;;133.73;;
16693;SDS011;39538;52.196;9.892;2022-10-01T14:08:33;139.90;;;134.33;;
16693;SDS011;39538;52.196;9.892;2022-10-01T14:11:08;135.90;;;130.13;;
16693;SDS011;39538;52.196;9.892;2022-10-01T14:13:53;124.53;;;119.63;;
16693;SDS011;39538;52.196;9.892;2022-10-01T14:16:41;121.60;;;116.93;;
16693;SDS011;39538;52.196;9.892;2022-10-01T14:19:16;138.53;;;133.00;;
16693;SDS011;39538;52.196;9.892;2022-10-01T14:21:48;136.40;;;130.77;;
16693;SDS011;39538;52.196;9.892;2022-10-01T14:24:26;140.37;;;134.77;;
16693;SDS011;39538;52.196;9.892;2022-10-01T14:27:03;125.67;;;120.43;;
16693;SDS011;39538;52.196;9.892;2022-10-01T14:29:44;111.50;;;107.57;;
16693;SDS011;39538;52.196;9.892;2022-10-01T14:32:21;110.83;;;106.87;;
16693;SDS011;39538;52.196;9.892;2022-10-01T14:35:06;109.97;;;105.70;;
16693;SDS011;39538;52.196;9.892;2022-10-01T14:37:44;110.63;;;106.57;;
16693;SDS011;39538;52.196;9.892;2022-10-01T14:40:13;106.17;;;102.20;;